Time;durP1;ratioP1;P1;durP2;ratioP2;P2;SDS_P1;SDS_P2;PMS_P1;PMS_P2;Temp;Humidity;BMP_temperature;BMP_pressure;BME280_temperature;BME280_humidity;BME280_pressure;Samples;Min_cycle;Max_cycle;Signal;HPM_P1;HPM_P2
2023/01/26 15:45:25;;;;;;;;;12.00;12.00;;;;;;;;5105364;27;13398;-66
2023/01/26 15:47:51;;;;;;;;;15.00;10.50;;;;;;;;5102607;28;13478;-66
2023/01/26 15:50:17;;;;;;;;;11.00;11.00;;;;;;;;5102465;28;13538;-66
2023/01/26 15:52:42;;;;;;;;;18.00;13.00;;;;;;;;5102366;28;13464;-67
2023/01/26 15:55:27;;;;;;;;;14.00;14.00;;;;;;;;5102433;28;13505;-64
2023/01/26 15:57:53;;;;;;;;;16.25;14.50;;;;;;;;5102877;28;13661;-64
2023/01/26 16:00:18;;;;;;;;;24.75;17.75;;;;;;;;5099248;28;13531;-72
2023/01/26 16:02:43;;;;;;;;;16.25;14.50;;;;;;;;5082013;28;13639;-68
2023/01/26 16:05:16;;;;;;;;;16.00;13.00;;;;;;;;5095140;28;13542;-70
2023/01/26 16:07:42;;;;;;;;;17.25;14.50;;;;;;;;5089380;28;13728;-70
2023/01/26 16:10:07;;;;;;;;;17.25;14.00;;;;;;;;5080844;28;13489;-70
2023/01/26 16:12:32;;;;;;;;;13.50;11.75;;;;;;;;5100693;28;13541;-69
2023/01/26 16:14:58;;;;;;;;;15.50;10.50;;;;;;;;5102401;28;13515;-71
2023/01/26 16:17:23;;;;;;;;;17.80;14.00;;;;;;;;5096076;28;13547;-70
2023/01/26 16:19:49;;;;;;;;;18.00;9.25;;;;;;;;5101312;28;13599;-78
2023/01/26 16:22:14;;;;;;;;;13.75;13.75;;;;;;;;5101025;28;13524;-72
2023/01/26 16:24:39;;;;;;;;;12.75;9.75;;;;;;;;5101882;28;13772;-69
2023/01/26 16:27:05;;;;;;;;;17.00;12.00;;;;;;;;5101640;28;13473;-66
2023/01/26 16:29:31;;;;;;;;;12.20;9.80;;;;;;;;5100930;27;13595;-66
2023/01/26 16:31:57;;;;;;;;;14.75;13.75;;;;;;;;5099874;28;13573;-72
2023/01/26 16:34:22;;;;;;;;;11.60;9.60;;;;;;;;5099056;28;13525;-68
2023/01/26 16:36:48;;;;;;;;;13.00;10.00;;;;;;;;5099786;28;13475;-74
2023/01/26 16:39:29;;;;;;;;;12.33;10.00;;;;;;;;5874609;22;13558;-76
2023/01/26 16:41:56;;;;;;;;;12.40;10.80;;;;;;;;5089111;28;13489;-75
2023/01/26 16:44:24;;;;;;;;;18.00;14.00;;;;;;;;5086990;28;13505;-75
2023/01/26 16:46:49;;;;;;;;;14.60;11.40;;;;;;;;5091048;28;13894;-73
2023/01/26 16:49:17;;;;;;;;;11.00;10.00;;;;;;;;5090844;28;13553;-71
2023/01/26 16:51:45;;;;;;;;;15.80;12.60;;;;;;;;5091581;28;13494;-75
2023/01/26 16:54:11;;;;;;;;;13.50;13.50;;;;;;;;5091895;28;13542;-75
2023/01/26 16:56:39;;;;;;;;;18.00;14.00;;;;;;;;5078942;28;13426;-74
2023/01/26 16:59:05;;;;;;;;;17.75;14.75;;;;;;;;5077537;28;13545;-73
2023/01/26 17:01:35;;;;;;;;;11.00;11.00;;;;;;;;5090399;28;13617;-68
2023/01/26 17:04:27;;;;;;;;;;;;;;;;;;;;;
2023/01/26 17:07:03;;;;;;;;;10.75;10.00;;;;;;;;5079206;28;13552;-67
2023/01/26 17:10:04;;;;;;;;;;;;;;;;;;;;;
2023/01/26 17:12:46;;;;;;;;;13.50;11.00;;;;;;;;5058900;28;13559;-67
2023/01/26 17:15:23;;;;;;;;;10.00;10.00;;;;;;;;5057718;28;13648;-69
2023/01/26 17:18:08;;;;;;;;;11.00;9.50;;;;;;;;5057804;28;13427;-69
2023/01/26 17:20:38;;;;;;;;;8.75;8.75;;;;;;;;5057527;28;13819;-69
2023/01/26 17:23:44;;;;;;;;;16.20;11.00;;;;;;;;5056361;28;13404;-68
2023/01/26 17:26:15;;;;;;;;;14.25;13.25;;;;;;;;5030863;28;14031;-70
2023/01/26 17:28:47;;;;;;;;;13.75;10.75;;;;;;;;5036258;28;13929;-69
2023/01/26 17:31:30;;;;;;;;;16.00;14.00;;;;;;;;5035652;28;13431;-69
2023/01/26 17:33:58;;;;;;;;;10.00;10.00;;;;;;;;5034745;28;13644;-68
2023/01/26 17:36:53;;;;;;;;;;;;;;;;;;;;;
2023/01/26 17:39:24;;;;;;;;;13.00;10.00;;;;;;;;5036299;28;13591;-69
2023/01/26 17:45:04;;;;;;;;;14.75;13.75;;;;;;;;5036656;28;13644;-70
2023/01/26 17:47:33;;;;;;;;;9.40;9.40;;;;;;;;4999922;28;13567;-69
2023/01/26 17:50:06;;;;;;;;;12.40;11.60;;;;;;;;4912449;28;13339;-67
2023/01/26 17:52:49;;;;;;;;;14.00;10.00;;;;;;;;4979005;28;13902;-67
2023/01/26 17:55:20;;;;;;;;;9.20;9.20;;;;;;;;4990212;28;13426;-67
2023/01/26 17:58:09;;;;;;;;;13.00;11.00;;;;;;;;4994988;28;13497;-67
2023/01/26 18:00:46;;;;;;;;;12.00;12.00;;;;;;;;4974247;28;13824;-66
2023/01/26 18:03:30;;;;;;;;;11.80;11.60;;;;;;;;4970016;28;13660;-67
2023/01/26 18:06:54;;;;;;;;;11.00;7.00;;;;;;;;4975540;28;13652;-68
2023/01/26 18:09:14;;;;;;;;;15.75;11.50;;;;;;;;4992439;28;13644;-68
2023/01/26 18:11:48;;;;;;;;;10.00;9.00;;;;;;;;4987984;28;13748;-68
2023/01/26 18:14:29;;;;;;;;;10.80;10.80;;;;;;;;4977461;28;13550;-67
2023/01/26 18:17:06;;;;;;;;;12.75;10.00;;;;;;;;4975097;28;13967;-67
2023/01/26 18:19:40;;;;;;;;;13.00;10.75;;;;;;;;4959704;28;13580;-69
2023/01/26 18:25:55;;;;;;;;;9.25;9.25;;;;;;;;5010379;28;13490;-68
2023/01/26 18:28:40;;;;;;;;;;;;;;;;;;;;;
2023/01/26 18:31:38;;;;;;;;;;;;;;;;;;;;;
2023/01/26 18:34:47;;;;;;;;;12.75;12.50;;;;;;;;5012352;28;13998;-66
2023/01/26 18:37:26;;;;;;;;;10.00;10.00;;;;;;;;4972050;28;13582;-68
2023/01/26 18:43:18;;;;;;;;;12.25;11.25;;;;;;;;4966310;28;13569;-68
2023/01/26 18:46:02;;;;;;;;;13.00;11.00;;;;;;;;4966332;28;13638;-69
2023/01/26 18:48:38;;;;;;;;;8.25;8.25;;;;;;;;4948436;28;14632;-69
2023/01/26 18:51:17;;;;;;;;;10.00;10.00;;;;;;;;4967308;28;13612;-69
2023/01/26 18:53:48;;;;;;;;;8.25;8.25;;;;;;;;4969265;28;13619;-69
2023/01/26 18:56:18;;;;;;;;;10.00;8.40;;;;;;;;4956858;28;13569;-69
2023/01/26 18:58:46;;;;;;;;;10.20;9.00;;;;;;;;4940494;28;13583;-69
2023/01/26 19:01:15;;;;;;;;;12.00;11.00;;;;;;;;4962491;28;13550;-70
2023/01/26 19:03:46;;;;;;;;;9.00;8.25;;;;;;;;4984262;28;13591;-70
2023/01/26 19:06:18;;;;;;;;;10.50;8.00;;;;;;;;4948983;28;13569;-71
2023/01/26 19:08:59;;;;;;;;;15.80;13.80;;;;;;;;5007325;28;14205;-69
2023/01/26 19:11:31;;;;;;;;;15.00;12.33;;;;;;;;5015094;28;13584;-69
2023/01/26 19:14:00;;;;;;;;;11.80;11.80;;;;;;;;5015683;28;13513;-69
2023/01/26 19:16:29;;;;;;;;;11.00;8.60;;;;;;;;5032431;28;13534;-68
2023/01/26 19:18:55;;;;;;;;;11.20;10.20;;;;;;;;5032324;28;13456;-67
2023/01/26 19:21:32;;;;;;;;;9.00;9.00;;;;;;;;5031659;28;13450;-69
2023/01/26 19:24:04;;;;;;;;;8.20;8.20;;;;;;;;5033186;28;13463;-68
2023/01/26 19:26:33;;;;;;;;;17.40;12.20;;;;;;;;5051731;28;13976;-68
2023/01/26 19:29:25;;;;;;;;;8.00;7.75;;;;;;;;5052111;28;13523;-70
2023/01/26 19:32:03;;;;;;;;;;;;;;;;;;;;;
2023/01/26 19:34:33;;;;;;;;;13.00;11.00;;;;;;;;5016160;28;13561;-68
2023/01/26 19:36:59;;;;;;;;;8.75;8.75;;;;;;;;5031857;28;13592;-69
2023/01/26 19:39:29;;;;;;;;;11.60;8.20;;;;;;;;5031871;28;13481;-70
2023/01/26 19:42:00;;;;;;;;;8.80;7.00;;;;;;;;5030482;28;13614;-70
2023/01/26 19:44:27;;;;;;;;;12.50;10.50;;;;;;;;5031466;28;13448;-69
2023/01/26 19:46:58;;;;;;;;;12.80;9.40;;;;;;;;5032379;28;14119;-70
2023/01/26 19:49:41;;;;;;;;;17.25;11.25;;;;;;;;5032068;28;13542;-69
2023/01/26 19:52:18;;;;;;;;;8.75;8.75;;;;;;;;5031313;28;13491;-69
2023/01/26 19:54:50;;;;;;;;;9.00;9.00;;;;;;;;5038179;28;13948;-68
2023/01/26 19:57:18;;;;;;;;;11.75;8.25;;;;;;;;5051649;28;13439;-69
2023/01/26 20:00:14;;;;;;;;;10.25;7.25;;;;;;;;5027936;28;13587;-68
2023/01/26 20:02:44;;;;;;;;;13.67;12.00;;;;;;;;5016590;28;13610;-67
2023/01/26 20:05:17;;;;;;;;;10.25;8.50;;;;;;;;5040508;28;13318;-71
2023/01/26 20:07:46;;;;;;;;;12.20;9.20;;;;;;;;5051273;28;13417;-69
2023/01/26 20:10:17;;;;;;;;;11.25;9.00;;;;;;;;5045983;28;13485;-70
2023/01/26 20:12:52;;;;;;;;;11.60;11.00;;;;;;;;5013586;28;13629;-71
2023/01/26 20:15:29;;;;;;;;;11.00;8.20;;;;;;;;5014254;28;13734;-68
2023/01/26 20:17:55;;;;;;;;;18.75;16.00;;;;;;;;5030683;28;13938;-68
2023/01/26 20:20:23;;;;;;;;;10.00;9.00;;;;;;;;5029858;28;13651;-68
2023/01/26 20:22:49;;;;;;;;;9.00;7.75;;;;;;;;5031390;28;13432;-68
2023/01/26 20:25:24;;;;;;;;;12.00;9.00;;;;;;;;5026249;28;13978;-69
2023/01/26 20:27:53;;;;;;;;;78.50;61.00;;;;;;;;5020090;28;13524;-69
2023/01/26 20:30:19;;;;;;;;;52.00;43.00;;;;;;;;5019204;28;13626;-67
2023/01/26 20:33:00;;;;;;;;;;;;;;;;;;;;;
2023/01/26 20:35:46;;;;;;;;;13.00;11.60;;;;;;;;5010558;28;13672;-67
2023/01/26 20:38:12;;;;;;;;;12.25;9.00;;;;;;;;5018479;28;13477;-67
2023/01/26 20:40:38;;;;;;;;;13.00;11.67;;;;;;;;5033439;28;14021;-67
2023/01/26 20:43:06;;;;;;;;;10.25;9.25;;;;;;;;5026426;28;13557;-67
2023/01/26 20:45:58;;;;;;;;;9.00;9.00;;;;;;;;5023873;28;13492;-67
2023/01/26 20:48:27;;;;;;;;;7.75;7.75;;;;;;;;5030829;28;13892;-68
2023/01/26 20:50:52;;;;;;;;;17.00;11.00;;;;;;;;5032950;28;13453;-67
2023/01/26 20:53:53;;;;;;;;;11.25;9.50;;;;;;;;5033837;28;13863;-67
2023/01/26 20:56:28;;;;;;;;;12.50;10.00;;;;;;;;5042929;28;13513;-68
2023/01/26 20:59:07;;;;;;;;;8.75;8.00;;;;;;;;5035234;28;13511;-68
2023/01/26 21:01:41;;;;;;;;;11.00;10.60;;;;;;;;5034832;28;13477;-69
2023/01/26 21:04:12;;;;;;;;;13.80;11.80;;;;;;;;5034756;28;13523;-67
2023/01/26 21:06:48;;;;;;;;;12.50;11.00;;;;;;;;5051324;28;13490;-69
2023/01/26 21:09:33;;;;;;;;;15.00;13.50;;;;;;;;5054167;28;14201;-69
2023/01/26 21:12:37;;;;;;;;;;;;;;;;;;;;;
2023/01/26 21:15:09;;;;;;;;;14.40;11.40;;;;;;;;5022508;28;13608;-69
2023/01/26 21:17:52;;;;;;;;;10.80;10.80;;;;;;;;5043365;28;13565;-69
2023/01/26 21:20:22;;;;;;;;;7.75;7.75;;;;;;;;5054565;28;13506;-70
2023/01/26 21:22:53;;;;;;;;;10.50;9.00;;;;;;;;5054475;28;13447;-69
2023/01/26 21:25:30;;;;;;;;;11.80;11.60;;;;;;;;5028300;28;13440;-69
2023/01/26 21:28:05;;;;;;;;;17.00;13.20;;;;;;;;5034391;28;13503;-69
2023/01/26 21:30:37;;;;;;;;;9.50;9.25;;;;;;;;5017328;28;13553;-69
2023/01/26 21:33:26;;;;;;;;;14.00;11.60;;;;;;;;5032882;28;13962;-69
2023/01/26 21:36:25;;;;;;;;;13.00;9.50;;;;;;;;5017694;28;13524;-69
2023/01/26 21:42:35;;;;;;;;;12.00;12.00;;;;;;;;4996084;28;13641;-69
2023/01/26 21:48:26;;;;;;;;;12.80;11.60;;;;;;;;4997145;28;14069;-68
2023/01/26 21:53:41;;;;;;;;;;;;;;;;;;;;;
2023/01/26 21:56:21;;;;;;;;;12.00;11.00;;;;;;;;4996524;28;13648;-68
2023/01/26 21:59:07;;;;;;;;;12.00;12.00;;;;;;;;4980470;28;13547;-68
2023/01/26 22:01:47;;;;;;;;;14.00;11.50;;;;;;;;4980006;28;14074;-68
2023/01/26 22:04:23;;;;;;;;;23.00;20.00;;;;;;;;4985438;28;13556;-68
2023/01/26 22:06:51;;;;;;;;;22.25;20.50;;;;;;;;4984554;28;13766;-68
2023/01/26 22:09:47;;;;;;;;;13.80;12.00;;;;;;;;5001491;28;13763;-69
